This is the latest recevied weather packets stored in our database for station/object HB9ZRH-10. If no packets are shown the sender has not sent any weather packets the latest 1 day(s).
| Time | Temp. | Humidity | Pressure | Rain* | Wind** | Luminosity | Snow |
|---|---|---|---|---|---|---|---|
| 1778081936 | 20.56° C | 48% | 1008.6 hPa | - | - | - | - |
| 1778081636 | 18.33° C | 49% | 1008.6 hPa | - | - | - | - |
| 1778081336 | 18.33° C | 48% | 1008.6 hPa | - | - | - | - |
| 1778081036 | 20.56° C | 48% | 1008.5 hPa | - | - | - | - |
| 1778080736 | 17.78° C | 50% | 1008.6 hPa | - | - | - | - |
| 1778080436 | 18.89° C | 48% | 1008.6 hPa | - | - | - | - |
| 1778080136 | 19.44° C | 47% | 1008.7 hPa | - | - | - | - |
| 1778079836 | 20° C | 47% | 1008.7 hPa | - | - | - | - |
| 1778079536 | 18.89° C | 48% | 1008.8 hPa | - | - | - | - |
| 1778078936 | 22.22° C | 47% | 1008.7 hPa | - | - | - | - |
| 1778078636 | 22.22° C | 47% | 1008.7 hPa | - | - | - | - |
| 1778078036 | 20° C | 48% | 1008.5 hPa | - | - | - | - |
| 1778077736 | 21.67° C | 48% | 1008.5 hPa | - | - | - | - |
| 1778077436 | 21.11° C | 49% | 1008.5 hPa | - | - | - | - |
| 1778077136 | 20° C | 50% | 1008.5 hPa | - | - | - | - |
| 1778076836 | 17.22° C | 52% | 1008.5 hPa | - | - | - | - |
| 1778076536 | 19.44° C | 50% | 1008.4 hPa | - | - | - | - |
| 1778076236 | 15.56° C | 54% | 1008.3 hPa | - | - | - | - |
| 1778075636 | 19.44° C | 50% | 1008.3 hPa | - | - | - | - |
| 1778075336 | 17.78° C | 52% | 1008.3 hPa | - | - | - | - |
| 1778075036 | 17.78° C | 51% | 1008.2 hPa | - | - | - | - |
| 1778074736 | 20.56° C | 49% | 1008.1 hPa | - | - | - | - |
| 1778074436 | 20° C | 51% | 1008.2 hPa | - | - | - | - |
| 1778074136 | 18.89° C | 50% | 1008.3 hPa | - | - | - | - |
| 1778073836 | 19.44° C | 52% | 1008.3 hPa | - | - | - | - |
* Rain since midnight (hover to see other rain measurements)
** Current wind speed in m/s (hover to see current wind gust speed)